sensor_id;sensor_type;location;lat;lon;timestamp;P1;durP1;ratioP1;P2;durP2;ratioP2
22768;SDS011;13001;51.968;5.918;2022-08-01T00:01:46;921.33;;;852.95;;
22768;SDS011;13001;51.968;5.918;2022-08-01T00:04:13;927.75;;;858.17;;
22768;SDS011;13001;51.968;5.918;2022-08-01T00:06:41;930.25;;;860.80;;
22768;SDS011;13001;51.968;5.918;2022-08-01T00:09:08;945.00;;;874.27;;
22768;SDS011;13001;51.968;5.918;2022-08-01T00:11:35;925.83;;;856.00;;
22768;SDS011;13001;51.968;5.918;2022-08-01T00:14:03;936.50;;;865.00;;
22768;SDS011;13001;51.968;5.918;2022-08-01T00:16:30;940.10;;;868.58;;
22768;SDS011;13001;51.968;5.918;2022-08-01T00:18:57;940.98;;;869.97;;
22768;SDS011;13001;51.968;5.918;2022-08-01T00:21:25;945.15;;;873.90;;
22768;SDS011;13001;51.968;5.918;2022-08-01T00:23:53;922.25;;;850.47;;
22768;SDS011;13001;51.968;5.918;2022-08-01T00:26:20;920.52;;;849.25;;
22768;SDS011;13001;51.968;5.918;2022-08-01T00:28:47;928.80;;;857.23;;
22768;SDS011;13001;51.968;5.918;2022-08-01T00:31:17;930.67;;;859.22;;
22768;SDS011;13001;51.968;5.918;2022-08-01T00:33:43;926.45;;;854.95;;
22768;SDS011;13001;51.968;5.918;2022-08-01T00:36:11;928.73;;;857.47;;
22768;SDS011;13001;51.968;5.918;2022-08-01T00:38:38;946.85;;;875.07;;
22768;SDS011;13001;51.968;5.918;2022-08-01T00:41:05;933.30;;;861.33;;
22768;SDS011;13001;51.968;5.918;2022-08-01T00:43:32;909.98;;;838.27;;
22768;SDS011;13001;51.968;5.918;2022-08-01T00:46:00;923.93;;;851.88;;
22768;SDS011;13001;51.968;5.918;2022-08-01T00:48:27;893.07;;;821.15;;
22768;SDS011;13001;51.968;5.918;2022-08-01T00:50:54;900.73;;;830.60;;
22768;SDS011;13001;51.968;5.918;2022-08-01T00:53:22;923.30;;;850.77;;
22768;SDS011;13001;51.968;5.918;2022-08-01T00:55:49;926.28;;;853.95;;
22768;SDS011;13001;51.968;5.918;2022-08-01T00:58:16;931.58;;;858.75;;
22768;SDS011;13001;51.968;5.918;2022-08-01T01:00:44;930.60;;;857.85;;
22768;SDS011;13001;51.968;5.918;2022-08-01T01:03:11;962.67;;;889.17;;
22768;SDS011;13001;51.968;5.918;2022-08-01T01:05:51;944.60;;;872.98;;
22768;SDS011;13001;51.968;5.918;2022-08-01T01:08:21;951.10;;;878.50;;
22768;SDS011;13001;51.968;5.918;2022-08-01T01:10:50;936.12;;;865.42;;
22768;SDS011;13001;51.968;5.918;2022-08-01T01:13:18;939.50;;;868.13;;
22768;SDS011;13001;51.968;5.918;2022-08-01T01:15:55;938.15;;;867.05;;
22768;SDS011;13001;51.968;5.918;2022-08-01T01:18:22;944.85;;;873.93;;
22768;SDS011;13001;51.968;5.918;2022-08-01T01:20:57;941.45;;;870.05;;
22768;SDS011;13001;51.968;5.918;2022-08-01T01:23:29;952.75;;;880.20;;
22768;SDS011;13001;51.968;5.918;2022-08-01T01:26:01;941.58;;;869.28;;
22768;SDS011;13001;51.968;5.918;2022-08-01T01:28:40;946.53;;;873.90;;
22768;SDS011;13001;51.968;5.918;2022-08-01T01:31:00;936.85;;;864.65;;
22768;SDS011;13001;51.968;5.918;2022-08-01T01:33:29;952.62;;;881.45;;
22768;SDS011;13001;51.968;5.918;2022-08-01T01:35:59;947.70;;;875.33;;
22768;SDS011;13001;51.968;5.918;2022-08-01T01:38:28;931.53;;;861.37;;
22768;SDS011;13001;51.968;5.918;2022-08-01T01:40:55;939.15;;;866.90;;
22768;SDS011;13001;51.968;5.918;2022-08-01T01:43:24;945.07;;;871.93;;
22768;SDS011;13001;51.968;5.918;2022-08-01T01:45:52;947.42;;;874.95;;
22768;SDS011;13001;51.968;5.918;2022-08-01T01:48:20;938.25;;;866.60;;
22768;SDS011;13001;51.968;5.918;2022-08-01T01:50:49;953.73;;;879.75;;
22768;SDS011;13001;51.968;5.918;2022-08-01T01:53:18;941.68;;;869.20;;
22768;SDS011;13001;51.968;5.918;2022-08-01T01:55:47;952.70;;;878.35;;
22768;SDS011;13001;51.968;5.918;2022-08-01T01:58:16;951.55;;;878.30;;
22768;SDS011;13001;51.968;5.918;2022-08-01T02:00:46;926.05;;;853.30;;
22768;SDS011;13001;51.968;5.918;2022-08-01T02:03:14;924.37;;;850.97;;
22768;SDS011;13001;51.968;5.918;2022-08-01T02:05:43;925.98;;;851.52;;
22768;SDS011;13001;51.968;5.918;2022-08-01T02:08:11;920.48;;;846.83;;
22768;SDS011;13001;51.968;5.918;2022-08-01T02:10:39;912.12;;;838.50;;
22768;SDS011;13001;51.968;5.918;2022-08-01T02:13:08;910.00;;;836.43;;
22768;SDS011;13001;51.968;5.918;2022-08-01T02:15:37;910.70;;;836.97;;
22768;SDS011;13001;51.968;5.918;2022-08-01T02:18:04;922.15;;;848.83;;
22768;SDS011;13001;51.968;5.918;2022-08-01T02:20:33;896.93;;;823.73;;
22768;SDS011;13001;51.968;5.918;2022-08-01T02:23:04;902.52;;;828.75;;
22768;SDS011;13001;51.968;5.918;2022-08-01T02:25:31;864.12;;;791.85;;
22768;SDS011;13001;51.968;5.918;2022-08-01T02:28:01;871.75;;;799.52;;
22768;SDS011;13001;51.968;5.918;2022-08-01T02:30:29;888.38;;;815.12;;
22768;SDS011;13001;51.968;5.918;2022-08-01T02:33:02;863.40;;;791.85;;
22768;SDS011;13001;51.968;5.918;2022-08-01T02:35:29;856.15;;;784.45;;
22768;SDS011;13001;51.968;5.918;2022-08-01T02:37:57;865.35;;;792.80;;
22768;SDS011;13001;51.968;5.918;2022-08-01T02:40:29;826.60;;;756.87;;
22768;SDS011;13001;51.968;5.918;2022-08-01T02:42:57;848.23;;;777.05;;
22768;SDS011;13001;51.968;5.918;2022-08-01T02:45:26;842.92;;;772.25;;
22768;SDS011;13001;51.968;5.918;2022-08-01T02:47:58;811.80;;;742.83;;
22768;SDS011;13001;51.968;5.918;2022-08-01T02:50:25;780.95;;;713.87;;
22768;SDS011;13001;51.968;5.918;2022-08-01T02:52:53;767.05;;;700.80;;
22768;SDS011;13001;51.968;5.918;2022-08-01T02:55:22;738.08;;;672.15;;
22768;SDS011;13001;51.968;5.918;2022-08-01T02:57:49;773.60;;;706.95;;
22768;SDS011;13001;51.968;5.918;2022-08-01T03:00:18;759.30;;;694.33;;
22768;SDS011;13001;51.968;5.918;2022-08-01T03:02:45;751.15;;;686.83;;
22768;SDS011;13001;51.968;5.918;2022-08-01T03:05:14;743.02;;;678.60;;
22768;SDS011;13001;51.968;5.918;2022-08-01T03:07:43;772.35;;;706.55;;
22768;SDS011;13001;51.968;5.918;2022-08-01T03:10:11;769.87;;;704.00;;
22768;SDS011;13001;51.968;5.918;2022-08-01T03:12:39;766.58;;;700.98;;
22768;SDS011;13001;51.968;5.918;2022-08-01T03:15:07;765.60;;;700.67;;
22768;SDS011;13001;51.968;5.918;2022-08-01T03:17:36;781.17;;;715.88;;
22768;SDS011;13001;51.968;5.918;2022-08-01T03:20:04;773.23;;;707.50;;
22768;SDS011;13001;51.968;5.918;2022-08-01T03:22:34;754.87;;;690.50;;
22768;SDS011;13001;51.968;5.918;2022-08-01T03:25:03;753.87;;;689.63;;
22768;SDS011;13001;51.968;5.918;2022-08-01T03:27:32;775.02;;;709.35;;
22768;SDS011;13001;51.968;5.918;2022-08-01T03:30:02;755.25;;;691.23;;
22768;SDS011;13001;51.968;5.918;2022-08-01T03:32:30;792.80;;;726.43;;
22768;SDS011;13001;51.968;5.918;2022-08-01T03:34:57;816.87;;;749.15;;
22768;SDS011;13001;51.968;5.918;2022-08-01T03:37:29;784.63;;;719.65;;
22768;SDS011;13001;51.968;5.918;2022-08-01T03:40:06;764.45;;;699.60;;
22768;SDS011;13001;51.968;5.918;2022-08-01T03:42:42;756.08;;;691.65;;
22768;SDS011;13001;51.968;5.918;2022-08-01T03:45:10;755.15;;;691.83;;
22768;SDS011;13001;51.968;5.918;2022-08-01T03:47:38;742.15;;;679.02;;
22768;SDS011;13001;51.968;5.918;2022-08-01T03:50:07;770.98;;;705.45;;
22768;SDS011;13001;51.968;5.918;2022-08-01T03:52:35;764.80;;;701.00;;
22768;SDS011;13001;51.968;5.918;2022-08-01T03:55:05;783.37;;;716.93;;
22768;SDS011;13001;51.968;5.918;2022-08-01T03:57:34;800.02;;;733.67;;
22768;SDS011;13001;51.968;5.918;2022-08-01T04:00:03;771.08;;;704.77;;
22768;SDS011;13001;51.968;5.918;2022-08-01T04:02:33;739.02;;;675.83;;
22768;SDS011;13001;51.968;5.918;2022-08-01T04:05:00;744.77;;;680.83;;
22768;SDS011;13001;51.968;5.918;2022-08-01T04:07:33;733.00;;;670.73;;
22768;SDS011;13001;51.968;5.918;2022-08-01T04:09:57;716.27;;;654.70;;
22768;SDS011;13001;51.968;5.918;2022-08-01T04:12:24;717.60;;;656.40;;
22768;SDS011;13001;51.968;5.918;2022-08-01T04:14:51;702.97;;;642.87;;
22768;SDS011;13001;51.968;5.918;2022-08-01T04:17:18;715.25;;;652.95;;
22768;SDS011;13001;51.968;5.918;2022-08-01T04:19:46;758.65;;;693.97;;
22768;SDS011;13001;51.968;5.918;2022-08-01T04:22:13;769.80;;;704.33;;
22768;SDS011;13001;51.968;5.918;2022-08-01T04:24:42;751.37;;;686.98;;
22768;SDS011;13001;51.968;5.918;2022-08-01T04:27:11;741.45;;;678.17;;
22768;SDS011;13001;51.968;5.918;2022-08-01T04:29:39;744.50;;;681.23;;
22768;SDS011;13001;51.968;5.918;2022-08-01T04:32:08;740.65;;;677.08;;
22768;SDS011;13001;51.968;5.918;2022-08-01T04:34:38;726.92;;;663.35;;
22768;SDS011;13001;51.968;5.918;2022-08-01T04:37:07;726.75;;;662.60;;
22768;SDS011;13001;51.968;5.918;2022-08-01T04:39:35;723.40;;;659.95;;
22768;SDS011;13001;51.968;5.918;2022-08-01T04:42:04;720.30;;;658.27;;
22768;SDS011;13001;51.968;5.918;2022-08-01T04:44:32;698.10;;;637.50;;
22768;SDS011;13001;51.968;5.918;2022-08-01T04:46:59;728.23;;;663.45;;
22768;SDS011;13001;51.968;5.918;2022-08-01T04:49:30;781.20;;;713.40;;
22768;SDS011;13001;51.968;5.918;2022-08-01T04:51:58;849.42;;;778.67;;
22768;SDS011;13001;51.968;5.918;2022-08-01T04:54:27;893.28;;;819.75;;
22768;SDS011;13001;51.968;5.918;2022-08-01T04:56:54;910.95;;;836.67;;
22768;SDS011;13001;51.968;5.918;2022-08-01T04:59:24;919.22;;;844.67;;
22768;SDS011;13001;51.968;5.918;2022-08-01T05:02:13;928.35;;;853.88;;
22768;SDS011;13001;51.968;5.918;2022-08-01T05:04:42;951.73;;;875.58;;
22768;SDS011;13001;51.968;5.918;2022-08-01T05:07:10;938.03;;;863.65;;
22768;SDS011;13001;51.968;5.918;2022-08-01T05:09:38;941.77;;;866.40;;
22768;SDS011;13001;51.968;5.918;2022-08-01T05:12:07;931.02;;;857.17;;
22768;SDS011;13001;51.968;5.918;2022-08-01T05:14:35;943.65;;;868.77;;
22768;SDS011;13001;51.968;5.918;2022-08-01T05:17:03;928.23;;;854.37;;
22768;SDS011;13001;51.968;5.918;2022-08-01T05:19:35;940.20;;;865.77;;
22768;SDS011;13001;51.968;5.918;2022-08-01T05:22:09;940.53;;;867.07;;
22768;SDS011;13001;51.968;5.918;2022-08-01T05:24:33;943.15;;;868.25;;
22768;SDS011;13001;51.968;5.918;2022-08-01T05:27:00;937.42;;;864.98;;
22768;SDS011;13001;51.968;5.918;2022-08-01T05:29:27;953.30;;;879.27;;
22768;SDS011;13001;51.968;5.918;2022-08-01T05:31:55;944.60;;;870.23;;
22768;SDS011;13001;51.968;5.918;2022-08-01T05:34:22;957.20;;;881.87;;
22768;SDS011;13001;51.968;5.918;2022-08-01T05:36:50;943.15;;;870.52;;
22768;SDS011;13001;51.968;5.918;2022-08-01T05:39:17;942.73;;;870.42;;
22768;SDS011;13001;51.968;5.918;2022-08-01T05:41:44;944.73;;;871.92;;
22768;SDS011;13001;51.968;5.918;2022-08-01T05:44:11;946.83;;;873.05;;
22768;SDS011;13001;51.968;5.918;2022-08-01T05:46:39;928.70;;;859.70;;
22768;SDS011;13001;51.968;5.918;2022-08-01T05:49:06;899.00;;;832.73;;
22768;SDS011;13001;51.968;5.918;2022-08-01T05:51:33;882.77;;;817.05;;
22768;SDS011;13001;51.968;5.918;2022-08-01T05:54:02;856.65;;;793.77;;
22768;SDS011;13001;51.968;5.918;2022-08-01T05:56:30;849.05;;;785.70;;
22768;SDS011;13001;51.968;5.918;2022-08-01T05:58:57;851.05;;;787.58;;
22768;SDS011;13001;51.968;5.918;2022-08-01T06:01:24;835.92;;;772.95;;
22768;SDS011;13001;51.968;5.918;2022-08-01T06:03:51;880.23;;;814.38;;
22768;SDS011;13001;51.968;5.918;2022-08-01T06:06:21;914.08;;;844.75;;
22768;SDS011;13001;51.968;5.918;2022-08-01T06:08:48;908.07;;;836.12;;
22768;SDS011;13001;51.968;5.918;2022-08-01T06:11:16;924.53;;;852.30;;
22768;SDS011;13001;51.968;5.918;2022-08-01T06:13:43;929.18;;;858.15;;
22768;SDS011;13001;51.968;5.918;2022-08-01T06:16:10;929.52;;;856.87;;
22768;SDS011;13001;51.968;5.918;2022-08-01T06:18:38;933.87;;;861.88;;
22768;SDS011;13001;51.968;5.918;2022-08-01T06:21:05;763.98;;;704.55;;
22768;SDS011;13001;51.968;5.918;2022-08-01T06:23:32;750.83;;;692.72;;
22768;SDS011;13001;51.968;5.918;2022-08-01T06:25:59;660.20;;;605.33;;
22768;SDS011;13001;51.968;5.918;2022-08-01T06:28:27;745.75;;;687.12;;
22768;SDS011;13001;51.968;5.918;2022-08-01T06:30:55;769.55;;;710.42;;
22768;SDS011;13001;51.968;5.918;2022-08-01T06:33:24;816.62;;;758.20;;
22768;SDS011;13001;51.968;5.918;2022-08-01T06:35:51;787.85;;;732.92;;
22768;SDS011;13001;51.968;5.918;2022-08-01T06:38:18;797.65;;;739.55;;
22768;SDS011;13001;51.968;5.918;2022-08-01T06:40:46;755.98;;;696.98;;
22768;SDS011;13001;51.968;5.918;2022-08-01T06:43:13;801.17;;;740.02;;
22768;SDS011;13001;51.968;5.918;2022-08-01T06:45:41;699.10;;;642.72;;
22768;SDS011;13001;51.968;5.918;2022-08-01T06:48:09;663.58;;;608.58;;
22768;SDS011;13001;51.968;5.918;2022-08-01T06:50:36;731.83;;;672.73;;
22768;SDS011;13001;51.968;5.918;2022-08-01T06:53:04;664.27;;;609.42;;
22768;SDS011;13001;51.968;5.918;2022-08-01T06:55:31;765.70;;;706.00;;
22768;SDS011;13001;51.968;5.918;2022-08-01T06:57:58;801.92;;;742.67;;
22768;SDS011;13001;51.968;5.918;2022-08-01T07:00:26;737.98;;;680.00;;
22768;SDS011;13001;51.968;5.918;2022-08-01T07:02:54;744.30;;;685.20;;
22768;SDS011;13001;51.968;5.918;2022-08-01T07:05:22;770.93;;;711.87;;
22768;SDS011;13001;51.968;5.918;2022-08-01T07:07:49;780.22;;;724.77;;
22768;SDS011;13001;51.968;5.918;2022-08-01T07:10:17;763.25;;;705.92;;
22768;SDS011;13001;51.968;5.918;2022-08-01T07:12:44;765.92;;;712.70;;
22768;SDS011;13001;51.968;5.918;2022-08-01T07:15:11;774.88;;;721.15;;
22768;SDS011;13001;51.968;5.918;2022-08-01T07:17:39;724.52;;;675.05;;
22768;SDS011;13001;51.968;5.918;2022-08-01T07:20:08;741.30;;;691.08;;
22768;SDS011;13001;51.968;5.918;2022-08-01T07:22:36;761.75;;;706.42;;
22768;SDS011;13001;51.968;5.918;2022-08-01T07:25:04;697.83;;;649.55;;
22768;SDS011;13001;51.968;5.918;2022-08-01T07:27:31;707.17;;;658.72;;
22768;SDS011;13001;51.968;5.918;2022-08-01T07:29:58;642.58;;;599.15;;
22768;SDS011;13001;51.968;5.918;2022-08-01T07:32:26;615.38;;;573.60;;
22768;SDS011;13001;51.968;5.918;2022-08-01T07:34:55;553.38;;;516.55;;
22768;SDS011;13001;51.968;5.918;2022-08-01T07:37:22;542.87;;;508.23;;
22768;SDS011;13001;51.968;5.918;2022-08-01T07:39:50;588.55;;;551.00;;
22768;SDS011;13001;51.968;5.918;2022-08-01T07:42:17;599.23;;;560.55;;
22768;SDS011;13001;51.968;5.918;2022-08-01T07:44:44;600.33;;;560.80;;
22768;SDS011;13001;51.968;5.918;2022-08-01T07:47:12;585.87;;;547.87;;
22768;SDS011;13001;51.968;5.918;2022-08-01T07:49:39;599.83;;;560.78;;
22768;SDS011;13001;51.968;5.918;2022-08-01T07:52:07;607.88;;;568.23;;
22768;SDS011;13001;51.968;5.918;2022-08-01T07:54:34;615.10;;;575.25;;
22768;SDS011;13001;51.968;5.918;2022-08-01T07:57:02;565.83;;;530.13;;
22768;SDS011;13001;51.968;5.918;2022-08-01T07:59:29;599.62;;;560.95;;
22768;SDS011;13001;51.968;5.918;2022-08-01T08:01:57;582.00;;;544.80;;
22768;SDS011;13001;51.968;5.918;2022-08-01T08:04:25;594.00;;;555.92;;
22768;SDS011;13001;51.968;5.918;2022-08-01T08:06:52;584.98;;;547.30;;
22768;SDS011;13001;51.968;5.918;2022-08-01T08:09:19;595.55;;;556.95;;
22768;SDS011;13001;51.968;5.918;2022-08-01T08:11:47;565.73;;;529.43;;
22768;SDS011;13001;51.968;5.918;2022-08-01T08:14:14;595.67;;;557.47;;
22768;SDS011;13001;51.968;5.918;2022-08-01T08:16:42;610.80;;;571.25;;
22768;SDS011;13001;51.968;5.918;2022-08-01T08:19:10;607.03;;;567.53;;
22768;SDS011;13001;51.968;5.918;2022-08-01T08:21:37;596.60;;;558.05;;
22768;SDS011;13001;51.968;5.918;2022-08-01T08:24:05;580.55;;;542.67;;
22768;SDS011;13001;51.968;5.918;2022-08-01T08:26:55;636.35;;;591.17;;
22768;SDS011;13001;51.968;5.918;2022-08-01T08:29:19;582.02;;;541.90;;
22768;SDS011;13001;51.968;5.918;2022-08-01T08:31:48;553.73;;;517.35;;
22768;SDS011;13001;51.968;5.918;2022-08-01T08:34:15;563.72;;;526.20;;
22768;SDS011;13001;51.968;5.918;2022-08-01T08:36:42;587.20;;;549.17;;
22768;SDS011;13001;51.968;5.918;2022-08-01T08:39:09;553.60;;;518.52;;
22768;SDS011;13001;51.968;5.918;2022-08-01T08:41:37;568.10;;;531.05;;
22768;SDS011;13001;51.968;5.918;2022-08-01T08:44:05;588.05;;;549.52;;
22768;SDS011;13001;51.968;5.918;2022-08-01T08:46:33;610.10;;;569.50;;
22768;SDS011;13001;51.968;5.918;2022-08-01T08:49:01;617.10;;;576.08;;
22768;SDS011;13001;51.968;5.918;2022-08-01T08:51:30;641.40;;;598.33;;
22768;SDS011;13001;51.968;5.918;2022-08-01T08:53:58;680.87;;;633.53;;
22768;SDS011;13001;51.968;5.918;2022-08-01T08:56:25;750.67;;;697.02;;
22768;SDS011;13001;51.968;5.918;2022-08-01T08:58:55;737.77;;;684.55;;
22768;SDS011;13001;51.968;5.918;2022-08-01T09:01:22;746.00;;;691.27;;
22768;SDS011;13001;51.968;5.918;2022-08-01T09:03:49;737.52;;;683.58;;
22768;SDS011;13001;51.968;5.918;2022-08-01T09:06:18;705.87;;;656.47;;
22768;SDS011;13001;51.968;5.918;2022-08-01T09:08:45;702.40;;;653.27;;
22768;SDS011;13001;51.968;5.918;2022-08-01T09:11:18;712.83;;;663.25;;
22768;SDS011;13001;51.968;5.918;2022-08-01T09:16:31;699.13;;;650.90;;
22768;SDS011;13001;51.968;5.918;2022-08-01T09:19:12;612.15;;;570.75;;
22768;SDS011;13001;51.968;5.918;2022-08-01T09:21:36;616.48;;;576.67;;
22768;SDS011;13001;51.968;5.918;2022-08-01T09:24:03;618.87;;;578.95;;
22768;SDS011;13001;51.968;5.918;2022-08-01T09:26:32;620.95;;;579.25;;
22768;SDS011;13001;51.968;5.918;2022-08-01T09:29:02;673.30;;;624.17;;
22768;SDS011;13001;51.968;5.918;2022-08-01T09:31:28;693.73;;;644.45;;
22768;SDS011;13001;51.968;5.918;2022-08-01T09:33:59;699.85;;;650.27;;
22768;SDS011;13001;51.968;5.918;2022-08-01T09:36:43;704.10;;;653.73;;
22768;SDS011;13001;51.968;5.918;2022-08-01T09:39:04;718.70;;;666.33;;
22768;SDS011;13001;51.968;5.918;2022-08-01T09:41:30;725.22;;;672.17;;
22768;SDS011;13001;51.968;5.918;2022-08-01T09:43:57;678.25;;;630.55;;
22768;SDS011;13001;51.968;5.918;2022-08-01T09:46:27;699.40;;;649.70;;
22768;SDS011;13001;51.968;5.918;2022-08-01T09:48:55;752.97;;;698.28;;
22768;SDS011;13001;51.968;5.918;2022-08-01T09:51:36;698.33;;;648.93;;
22768;SDS011;13001;51.968;5.918;2022-08-01T09:54:04;733.23;;;680.73;;
22768;SDS011;13001;51.968;5.918;2022-08-01T09:56:39;716.90;;;665.97;;
22768;SDS011;13001;51.968;5.918;2022-08-01T09:59:07;757.15;;;701.98;;
22768;SDS011;13001;51.968;5.918;2022-08-01T10:01:45;751.82;;;694.58;;
22768;SDS011;13001;51.968;5.918;2022-08-01T10:04:14;725.27;;;669.15;;
22768;SDS011;13001;51.968;5.918;2022-08-01T10:06:44;674.17;;;620.65;;
22768;SDS011;13001;51.968;5.918;2022-08-01T10:09:11;742.08;;;684.35;;
22768;SDS011;13001;51.968;5.918;2022-08-01T10:11:40;676.17;;;623.17;;
22768;SDS011;13001;51.968;5.918;2022-08-01T10:14:07;714.32;;;658.98;;
22768;SDS011;13001;51.968;5.918;2022-08-01T10:16:35;731.20;;;674.70;;
22768;SDS011;13001;51.968;5.918;2022-08-01T10:19:08;763.03;;;706.05;;
22768;SDS011;13001;51.968;5.918;2022-08-01T10:21:33;654.77;;;608.45;;
22768;SDS011;13001;51.968;5.918;2022-08-01T10:24:02;684.40;;;636.30;;
22768;SDS011;13001;51.968;5.918;2022-08-01T10:26:32;773.45;;;717.80;;
22768;SDS011;13001;51.968;5.918;2022-08-01T10:28:59;682.05;;;635.95;;
22768;SDS011;13001;51.968;5.918;2022-08-01T10:31:27;644.25;;;600.27;;
22768;SDS011;13001;51.968;5.918;2022-08-01T10:33:57;731.02;;;678.50;;
22768;SDS011;13001;51.968;5.918;2022-08-01T10:36:24;626.27;;;583.60;;
22768;SDS011;13001;51.968;5.918;2022-08-01T10:38:54;592.08;;;553.15;;
22768;SDS011;13001;51.968;5.918;2022-08-01T10:41:22;583.35;;;546.72;;
22768;SDS011;13001;51.968;5.918;2022-08-01T10:43:51;608.77;;;568.90;;
22768;SDS011;13001;51.968;5.918;2022-08-01T10:46:19;620.95;;;580.13;;
22768;SDS011;13001;51.968;5.918;2022-08-01T10:51:38;652.50;;;607.08;;
22768;SDS011;13001;51.968;5.918;2022-08-01T10:54:07;704.98;;;655.48;;
22768;SDS011;13001;51.968;5.918;2022-08-01T10:59:14;707.47;;;657.00;;
22768;SDS011;13001;51.968;5.918;2022-08-01T11:01:39;731.73;;;680.63;;
22768;SDS011;13001;51.968;5.918;2022-08-01T11:04:08;729.05;;;674.70;;
22768;SDS011;13001;51.968;5.918;2022-08-01T11:14:28;679.35;;;628.73;;
22768;SDS011;13001;51.968;5.918;2022-08-01T11:16:55;732.80;;;676.08;;
22768;SDS011;13001;51.968;5.918;2022-08-01T11:19:22;776.58;;;716.12;;
22768;SDS011;13001;51.968;5.918;2022-08-01T11:27:23;553.40;;;510.43;;
22768;SDS011;13001;51.968;5.918;2022-08-01T11:30:21;557.00;;;513.70;;
22768;SDS011;13001;51.968;5.918;2022-08-01T11:32:26;743.05;;;688.12;;
22768;SDS011;13001;51.968;5.918;2022-08-01T11:34:58;564.78;;;522.73;;
22768;SDS011;13001;51.968;5.918;2022-08-01T11:37:23;597.67;;;556.27;;
22768;SDS011;13001;51.968;5.918;2022-08-01T11:42:28;607.35;;;567.03;;
22768;SDS011;13001;51.968;5.918;2022-08-01T11:44:56;604.55;;;564.48;;
22768;SDS011;13001;51.968;5.918;2022-08-01T11:47:45;600.67;;;560.83;;
22768;SDS011;13001;51.968;5.918;2022-08-01T11:49:52;611.37;;;570.70;;
22768;SDS011;13001;51.968;5.918;2022-08-01T11:52:25;590.83;;;551.80;;
22768;SDS011;13001;51.968;5.918;2022-08-01T11:54:57;592.80;;;553.73;;
22768;SDS011;13001;51.968;5.918;2022-08-01T11:57:26;627.83;;;585.00;;
22768;SDS011;13001;51.968;5.918;2022-08-01T11:59:54;634.42;;;591.88;;
22768;SDS011;13001;51.968;5.918;2022-08-01T12:02:23;608.50;;;567.53;;
22768;SDS011;13001;51.968;5.918;2022-08-01T12:04:56;687.05;;;635.45;;
22768;SDS011;13001;51.968;5.918;2022-08-01T12:07:19;703.80;;;650.33;;
22768;SDS011;13001;51.968;5.918;2022-08-01T12:09:47;727.60;;;671.20;;
22768;SDS011;13001;51.968;5.918;2022-08-01T12:12:15;694.40;;;640.65;;
22768;SDS011;13001;51.968;5.918;2022-08-01T12:14:48;746.70;;;688.17;;
22768;SDS011;13001;51.968;5.918;2022-08-01T12:17:12;676.82;;;624.45;;
22768;SDS011;13001;51.968;5.918;2022-08-01T12:19:40;690.75;;;637.50;;
22768;SDS011;13001;51.968;5.918;2022-08-01T12:22:08;646.20;;;598.62;;
22768;SDS011;13001;51.968;5.918;2022-08-01T12:24:36;744.40;;;686.98;;
22768;SDS011;13001;51.968;5.918;2022-08-01T12:27:04;734.10;;;677.28;;
22768;SDS011;13001;51.968;5.918;2022-08-01T12:29:33;755.15;;;697.73;;
22768;SDS011;13001;51.968;5.918;2022-08-01T12:32:00;694.10;;;640.73;;
22768;SDS011;13001;51.968;5.918;2022-08-01T12:34:28;728.12;;;672.33;;
22768;SDS011;13001;51.968;5.918;2022-08-01T12:36:57;698.50;;;645.30;;
22768;SDS011;13001;51.968;5.918;2022-08-01T12:39:33;781.87;;;721.73;;
22768;SDS011;13001;51.968;5.918;2022-08-01T12:42:01;760.60;;;702.10;;
22768;SDS011;13001;51.968;5.918;2022-08-01T12:44:28;754.50;;;696.30;;
22768;SDS011;13001;51.968;5.918;2022-08-01T12:46:56;768.85;;;709.92;;
22768;SDS011;13001;51.968;5.918;2022-08-01T12:49:23;757.25;;;698.75;;
22768;SDS011;13001;51.968;5.918;2022-08-01T12:51:51;778.35;;;718.70;;
22768;SDS011;13001;51.968;5.918;2022-08-01T12:54:18;782.53;;;724.97;;
22768;SDS011;13001;51.968;5.918;2022-08-01T12:56:45;820.07;;;757.03;;
22768;SDS011;13001;51.968;5.918;2022-08-01T12:59:19;775.42;;;715.75;;
22768;SDS011;13001;51.968;5.918;2022-08-01T13:01:47;728.33;;;676.35;;
22768;SDS011;13001;51.968;5.918;2022-08-01T13:04:14;721.27;;;670.42;;
22768;SDS011;13001;51.968;5.918;2022-08-01T13:06:41;686.30;;;639.40;;
22768;SDS011;13001;51.968;5.918;2022-08-01T13:09:09;712.92;;;662.00;;
22768;SDS011;13001;51.968;5.918;2022-08-01T13:11:40;716.62;;;666.17;;
22768;SDS011;13001;51.968;5.918;2022-08-01T13:14:09;721.13;;;670.90;;
22768;SDS011;13001;51.968;5.918;2022-08-01T13:16:46;767.17;;;711.00;;
22768;SDS011;13001;51.968;5.918;2022-08-01T13:19:14;753.43;;;698.47;;
22768;SDS011;13001;51.968;5.918;2022-08-01T13:21:53;737.45;;;684.63;;
22768;SDS011;13001;51.968;5.918;2022-08-01T13:24:10;784.87;;;727.30;;
22768;SDS011;13001;51.968;5.918;2022-08-01T13:26:49;806.67;;;746.35;;
22768;SDS011;13001;51.968;5.918;2022-08-01T13:29:17;741.13;;;688.13;;
22768;SDS011;13001;51.968;5.918;2022-08-01T13:31:45;766.10;;;710.70;;
22768;SDS011;13001;51.968;5.918;2022-08-01T13:34:12;779.72;;;720.30;;
22768;SDS011;13001;51.968;5.918;2022-08-01T13:36:40;729.92;;;677.88;;
22768;SDS011;13001;51.968;5.918;2022-08-01T13:39:07;753.50;;;699.43;;
22768;SDS011;13001;51.968;5.918;2022-08-01T13:41:52;762.40;;;707.00;;
22768;SDS011;13001;51.968;5.918;2022-08-01T13:44:20;755.65;;;700.98;;
22768;SDS011;13001;51.968;5.918;2022-08-01T13:46:47;762.38;;;707.88;;
22768;SDS011;13001;51.968;5.918;2022-08-01T13:49:14;748.30;;;694.10;;
22768;SDS011;13001;51.968;5.918;2022-08-01T13:51:42;738.70;;;683.80;;
22768;SDS011;13001;51.968;5.918;2022-08-01T13:54:09;744.40;;;688.97;;
22768;SDS011;13001;51.968;5.918;2022-08-01T13:56:37;731.40;;;675.70;;
22768;SDS011;13001;51.968;5.918;2022-08-01T13:59:04;718.13;;;663.60;;
22768;SDS011;13001;51.968;5.918;2022-08-01T14:01:32;723.17;;;670.55;;
22768;SDS011;13001;51.968;5.918;2022-08-01T14:04:00;757.05;;;697.30;;
22768;SDS011;13001;51.968;5.918;2022-08-01T14:06:28;749.12;;;690.73;;
22768;SDS011;13001;51.968;5.918;2022-08-01T14:08:55;734.30;;;677.88;;
22768;SDS011;13001;51.968;5.918;2022-08-01T14:11:23;679.48;;;628.42;;
22768;SDS011;13001;51.968;5.918;2022-08-01T14:13:50;683.80;;;635.25;;
22768;SDS011;13001;51.968;5.918;2022-08-01T14:16:17;673.17;;;626.37;;
22768;SDS011;13001;51.968;5.918;2022-08-01T14:18:44;648.15;;;602.13;;
22768;SDS011;13001;51.968;5.918;2022-08-01T14:21:12;687.87;;;636.67;;
22768;SDS011;13001;51.968;5.918;2022-08-01T14:23:41;672.67;;;622.65;;
22768;SDS011;13001;51.968;5.918;2022-08-01T14:26:10;721.40;;;666.20;;
22768;SDS011;13001;51.968;5.918;2022-08-01T14:28:38;716.83;;;664.63;;